Time;durP1;ratioP1;P1;durP2;ratioP2;P2;SDS_P1;SDS_P2;PMS_P1;PMS_P2;Temp;Humidity;BMP_temperature;BMP_pressure;BME280_temperature;BME280_humidity;BME280_pressure;Samples;Min_cycle;Max_cycle;Signal;HPM_P1;HPM_P2
2022/10/20 00:00:59;;;;;;;5.80;2.20;;;;;;;7.20;73.79;96230.36;1737316;81;21021;-62
2022/10/20 00:03:28;;;;;;;6.80;2.00;;;;;;;7.14;74.13;96224.22;1737648;82;21111;-62
2022/10/20 00:06:12;;;;;;;4.53;1.70;;;;;;;7.08;73.85;96230.77;1739775;82;21093;-62
2022/10/20 00:08:40;;;;;;;6.05;1.90;;;;;;;6.94;74.82;96240.30;1735988;81;21009;-62
2022/10/20 00:11:08;;;;;;;6.50;1.83;;;;;;;6.83;75.04;96243.27;1737886;81;21115;-62
2022/10/20 00:13:36;;;;;;;5.60;2.10;;;;;;;6.77;76.57;96248.48;1736995;82;21044;-62
2022/10/20 00:16:04;;;;;;;6.10;2.10;;;;;;;6.74;76.06;96251.97;1743291;81;21074;-62
2022/10/20 00:18:30;;;;;;;5.93;1.63;;;;;;;6.67;76.09;96248.85;1741305;82;21037;-63
2022/10/20 00:20:57;;;;;;;2.30;1.70;;;;;;;6.60;76.04;96249.67;1743649;82;21025;-61
2022/10/20 00:23:24;;;;;;;3.23;1.63;;;;;;;6.63;76.42;96252.34;1744724;81;21029;-61
2022/10/20 00:26:04;;;;;;;2.93;1.33;;;;;;;6.68;76.50;96254.12;1742082;82;21546;-61
2022/10/20 00:28:31;;;;;;;5.67;1.47;;;;;;;6.75;76.53;96248.46;1738071;81;21519;-62
2022/10/20 00:30:57;;;;;;;2.97;1.60;;;;;;;6.83;76.56;96249.42;1740331;81;21021;-62
2022/10/20 00:33:25;;;;;;;2.30;1.90;;;;;;;6.87;76.23;96239.37;1744179;82;21053;-62
2022/10/20 00:35:52;;;;;;;2.10;1.50;;;;;;;6.89;75.93;96236.77;1740050;82;21048;-62
2022/10/20 00:38:18;;;;;;;5.10;1.67;;;;;;;6.91;75.83;96238.97;1744315;81;21096;-62
2022/10/20 00:40:45;;;;;;;2.77;1.60;;;;;;;6.91;75.56;96242.91;1744461;82;21016;-62
2022/10/20 00:43:13;;;;;;;4.37;1.70;;;;;;;6.92;75.83;96241.58;1741059;81;21076;-62
2022/10/20 00:45:42;;;;;;;3.63;1.67;;;;;;;6.87;75.60;96246.37;1736322;81;21033;-62
2022/10/20 00:48:16;;;;;;;2.83;1.70;;;;;;;6.82;75.84;96249.39;1738701;81;21154;-61
2022/10/20 00:50:49;;;;;;;2.70;1.80;;;;;;;6.78;76.07;96247.61;1739448;82;21033;-65
2022/10/20 00:53:16;;;;;;;;;;;;;;;6.68;76.28;96244.94;1748666;82;21092;-62
2022/10/20 00:55:47;;;;;;;3.50;1.63;;;;;;;6.61;76.69;96242.27;1744831;82;20408;-61
2022/10/20 00:58:16;;;;;;;3.57;2.20;;;;;;;6.50;77.02;96243.06;1736910;81;21744;-61
2022/10/20 01:00:45;;;;;;;7.23;2.50;;;;;;;6.37;76.28;96244.25;1737241;82;21021;-61
2022/10/20 01:03:25;;;;;;;13.03;2.37;;;;;;;6.35;76.69;96244.67;1745820;81;21073;-62
2022/10/20 01:05:51;;;;;;;2.50;2.00;;;;;;;6.27;76.74;96238.96;1743071;81;21068;-61
2022/10/20 01:08:18;;;;;;;3.17;2.20;;;;;;;6.20;77.25;96237.55;1741796;82;21499;-61
2022/10/20 01:11:18;;;;;;;3.97;2.40;;;;;;;6.15;76.71;96244.50;1737304;82;21065;-62
2022/10/20 01:14:02;;;;;;;6.13;1.97;;;;;;;6.06;76.68;96239.62;1748576;81;21090;-61
2022/10/20 01:16:46;;;;;;;3.07;1.97;;;;;;;6.01;76.75;96243.94;1737791;82;21029;-64
2022/10/20 01:19:27;;;;;;;3.83;2.03;;;;;;;5.99;76.76;96250.03;1738356;81;21147;-62
2022/10/20 01:21:59;;;;;;;3.63;2.27;;;;;;;5.86;76.20;96249.00;1733742;82;21045;-62
2022/10/20 01:25:04;;;;;;;2.60;2.10;;;;;;;5.79;77.48;96256.34;1739360;82;21080;-63
2022/10/20 01:27:38;;;;;;;3.77;1.97;;;;;;;5.71;77.12;96260.63;1740000;81;21514;-62
2022/10/20 01:30:18;;;;;;;2.53;1.57;;;;;;;5.58;76.85;96265.72;1739299;81;21064;-68
2022/10/20 01:33:42;;;;;;;7.90;3.10;;;;;;;5.58;76.98;96271.39;1738920;81;21032;-61
2022/10/20 01:36:29;;;;;;;3.75;2.22;;;;;;;5.55;77.25;96278.78;1747156;82;21028;-62
2022/10/20 01:39:09;;;;;;;8.07;2.73;;;;;;;5.43;77.16;96272.95;1690093;82;21555;-62
2022/10/20 01:41:52;;;;;;;9.47;2.27;;;;;;;5.42;78.75;96278.20;1736241;81;21025;-61
2022/10/20 01:44:23;;;;;;;3.02;1.98;;;;;;;5.43;78.46;96278.62;1737416;81;21089;-61
2022/10/20 01:46:50;;;;;;;5.80;2.87;;;;;;;5.34;78.16;96278.50;1737101;82;21045;-61
2022/10/20 01:49:17;;;;;;;4.17;2.80;;;;;;;5.25;79.04;96284.95;1738120;82;21053;-61
2022/10/20 01:51:43;;;;;;;2.93;1.80;;;;;;;5.25;79.55;96287.56;1742506;82;21670;-61
2022/10/20 01:54:26;;;;;;;3.60;1.30;;;;;;;5.23;78.83;96284.05;1742577;82;21124;-61
2022/10/20 01:57:22;;;;;;;6.20;2.20;;;;;;;5.21;79.12;96285.31;1743948;82;21036;-61
2022/10/20 02:00:11;;;;;;;3.10;2.40;;;;;;;5.22;79.46;96287.09;1737798;81;21141;-61
2022/10/20 02:03:02;;;;;;;5.73;1.47;;;;;;;5.27;79.31;96279.31;1743308;81;20993;-61
2022/10/20 02:06:00;;;;;;;6.50;3.23;;;;;;;5.32;79.25;96290.72;1737484;82;21534;-62
2022/10/20 02:08:51;;;;;;;7.77;2.80;;;;;;;5.26;78.89;96300.65;1737361;81;21504;-61
2022/10/20 02:11:30;;;;;;;3.70;2.90;;;;;;;5.15;78.55;96303.13;1703148;84;21050;-61
2022/10/20 02:13:57;;;;;;;3.87;2.10;;;;;;;5.17;78.96;96309.70;1696978;84;21085;-61
2022/10/20 02:16:35;;;;;;;2.67;2.00;;;;;;;5.12;79.52;96312.69;1697192;82;22105;-62
2022/10/20 02:19:05;;;;;;;6.87;3.90;;;;;;;5.08;79.59;96306.52;1747633;81;21104;-61
2022/10/20 02:21:31;;;;;;;6.27;3.33;;;;;;;5.04;79.50;96317.81;1681000;84;21006;-69
2022/10/20 02:24:03;;;;;;;7.23;1.97;;;;;;;4.96;79.10;96316.80;1721700;82;21056;-61
2022/10/20 02:26:32;;;;;;;2.50;1.70;;;;;;;4.93;79.21;96314.14;1740795;81;21024;-61
2022/10/20 02:29:04;;;;;;;4.13;2.30;;;;;;;4.91;79.58;96323.69;1707767;82;21029;-61
2022/10/20 02:31:31;;;;;;;6.13;4.33;;;;;;;4.89;80.22;96321.08;1741958;81;21017;-61
2022/10/20 02:33:58;;;;;;;8.23;4.00;;;;;;;4.83;79.20;96325.31;1746231;81;21057;-61
2022/10/20 02:36:28;;;;;;;5.53;2.77;;;;;;;4.82;79.92;96331.41;1745586;82;21029;-61
2022/10/20 02:38:55;;;;;;;5.43;2.40;;;;;;;4.77;80.36;96323.06;1739601;81;21495;-62
2022/10/20 02:41:22;;;;;;;2.50;2.00;;;;;;;4.81;80.14;96321.36;1706592;84;21070;-61
2022/10/20 02:43:48;;;;;;;4.63;2.77;;;;;;;4.91;80.58;96329.83;1722711;82;21542;-62
2022/10/20 02:46:15;;;;;;;3.60;2.57;;;;;;;4.93;80.41;96322.86;1729074;82;20990;-62
2022/10/20 02:48:42;;;;;;;4.03;1.97;;;;;;;4.91;81.03;96327.61;1743017;81;20980;-61
2022/10/20 02:51:08;;;;;;;2.23;1.70;;;;;;;4.89;80.93;96326.70;1699317;83;21166;-61
2022/10/20 02:53:35;;;;;;;3.43;1.97;;;;;;;4.89;81.47;96324.09;1725550;81;21022;-61
2022/10/20 02:56:01;;;;;;;3.10;2.10;;;;;;;4.90;81.42;96332.41;1745013;81;21055;-61
2022/10/20 02:58:28;;;;;;;3.47;2.30;;;;;;;4.86;81.52;96326.23;1703079;84;21034;-62
2022/10/20 03:00:54;;;;;;;3.93;1.90;;;;;;;4.81;80.96;96327.02;1739942;81;21498;-61
2022/10/20 03:03:21;;;;;;;2.27;1.80;;;;;;;4.72;80.48;96323.85;1753418;81;21108;-61
2022/10/20 03:05:47;;;;;;;3.00;2.17;;;;;;;4.67;81.02;96323.77;1724543;82;21037;-61
2022/10/20 03:08:14;;;;;;;7.40;2.43;;;;;;;4.59;81.21;96335.84;1727859;82;21037;-61
2022/10/20 03:10:42;;;;;;;5.03;1.90;;;;;;;4.53;80.94;96340.95;1727246;82;21076;-62
2022/10/20 03:13:09;;;;;;;5.20;1.97;;;;;;;4.45;80.41;96347.79;1744283;80;21026;-61
2022/10/20 03:15:37;;;;;;;3.80;1.90;;;;;;;4.48;80.90;96347.84;1724028;82;21024;-62
2022/10/20 03:18:04;;;;;;;4.13;2.47;;;;;;;4.48;80.57;96348.71;1721504;82;21465;-62
2022/10/20 03:20:32;;;;;;;8.27;5.70;;;;;;;4.34;80.47;96352.84;1719474;82;20993;-62
2022/10/20 03:22:58;;;;;;;6.93;6.20;;;;;;;4.23;81.03;96360.45;1745970;81;21013;-63
2022/10/20 03:25:25;;;;;;;9.17;5.80;;;;;;;4.20;80.53;96364.77;1727615;82;21030;-61
2022/10/20 03:27:51;;;;;;;17.27;9.67;;;;;;;4.19;80.79;96363.02;1686973;82;21021;-62
2022/10/20 03:30:18;;;;;;;16.60;11.23;;;;;;;4.12;80.77;96367.23;1735482;81;20985;-61
2022/10/20 03:32:44;;;;;;;21.73;14.00;;;;;;;4.10;81.40;96378.07;1714418;82;21029;-61
2022/10/20 03:35:11;;;;;;;12.07;8.30;;;;;;;4.15;81.40;96372.51;1746787;81;21510;-63
2022/10/20 03:37:37;;;;;;;15.50;9.07;;;;;;;4.10;80.66;96367.19;1707656;83;21037;-62
2022/10/20 03:40:06;;;;;;;7.00;5.23;;;;;;;4.02;80.58;96362.69;1729034;82;21111;-61
2022/10/20 03:42:32;;;;;;;14.03;9.60;;;;;;;3.98;80.84;96370.00;1742057;81;21498;-61
2022/10/20 03:44:58;;;;;;;21.03;15.20;;;;;;;3.84;80.21;96370.62;1746365;81;21038;-61
2022/10/20 03:47:25;;;;;;;8.03;5.67;;;;;;;3.83;81.07;96370.17;1737836;82;20993;-61
2022/10/20 03:49:51;;;;;;;10.20;6.70;;;;;;;3.78;80.57;96366.59;1737851;81;21079;-60
2022/10/20 03:52:18;;;;;;;10.53;6.67;;;;;;;3.68;81.07;96368.56;1745756;82;21029;-61
2022/10/20 03:54:44;;;;;;;5.93;4.80;;;;;;;3.61;81.90;96361.45;1736833;82;21048;-61
2022/10/20 03:57:11;;;;;;;6.77;3.37;;;;;;;3.63;81.78;96354.55;1739422;81;21013;-61
2022/10/20 03:59:37;;;;;;;6.53;3.37;;;;;;;3.54;80.86;96352.61;1740382;82;21014;-63
2022/10/20 04:02:04;;;;;;;3.07;2.10;;;;;;;3.43;81.48;96351.52;1742360;81;21021;-62
2022/10/20 04:04:30;;;;;;;4.00;2.90;;;;;;;3.36;81.94;96354.41;1739849;82;21532;-64
2022/10/20 04:06:57;;;;;;;2.90;2.03;;;;;;;3.34;81.75;96358.70;1741710;82;21021;-63
2022/10/20 04:09:23;;;;;;;4.23;2.27;;;;;;;3.33;81.51;96359.56;1739073;81;20981;-63
2022/10/20 04:11:50;;;;;;;3.67;2.57;;;;;;;3.28;82.79;96355.11;1744413;81;21550;-63
2022/10/20 04:14:16;;;;;;;5.50;2.40;;;;;;;3.17;81.68;96353.54;1742958;82;21013;-63
2022/10/20 04:16:43;;;;;;;4.13;3.27;;;;;;;3.13;83.16;96358.25;1740144;81;21013;-63
2022/10/20 04:19:09;;;;;;;7.20;4.37;;;;;;;3.09;82.79;96358.59;1735468;81;21062;-66
2022/10/20 04:21:35;;;;;;;6.60;3.90;;;;;;;3.01;82.25;96350.59;1739517;82;21029;-63
2022/10/20 04:24:04;;;;;;;6.60;3.50;;;;;;;3.06;82.40;96356.34;1740760;82;21575;-63
2022/10/20 04:26:30;;;;;;;3.93;2.30;;;;;;;3.08;82.40;96353.36;1742795;81;21502;-63
2022/10/20 04:28:57;;;;;;;4.57;2.10;;;;;;;3.08;81.92;96350.75;1741078;82;21077;-63
2022/10/20 04:31:23;;;;;;;2.97;2.10;;;;;;;3.00;81.77;96360.58;1739719;81;21021;-63
2022/10/20 04:33:50;;;;;;;4.37;2.00;;;;;;;2.91;81.54;96359.05;1738928;82;20994;-63
2022/10/20 04:36:16;;;;;;;6.10;2.23;;;;;;;2.91;82.07;96358.17;1740415;82;21120;-63
2022/10/20 04:38:43;;;;;;;26.40;19.97;;;;;;;2.88;83.00;96362.89;1740470;82;21068;-63
2022/10/20 04:41:10;;;;;;;13.50;10.13;;;;;;;2.90;82.93;96359.91;1741440;81;21049;-63
2022/10/20 04:43:36;;;;;;;12.73;8.80;;;;;;;2.93;82.30;96360.41;1738168;82;21571;-63
2022/10/20 04:46:05;;;;;;;2.67;2.23;;;;;;;2.99;82.55;96364.44;1744386;82;21115;-64
2022/10/20 04:48:32;;;;;;;3.80;1.80;;;;;;;3.07;82.01;96363.31;1739321;81;21081;-63
2022/10/20 04:51:05;;;;;;;3.27;2.37;;;;;;;3.12;81.85;96371.69;1739331;82;21009;-64
2022/10/20 04:53:32;;;;;;;5.20;3.05;;;;;;;3.14;81.23;96367.82;1742569;82;21096;-63
2022/10/20 04:55:59;;;;;;;7.00;3.17;;;;;;;3.11;81.51;96365.16;1737782;82;21089;-63
2022/10/20 04:58:26;;;;;;;5.73;2.83;;;;;;;3.15;81.93;96369.57;1737381;81;21088;-63
2022/10/20 05:00:53;;;;;;;5.13;2.47;;;;;;;3.20;82.58;96370.55;1737064;81;21299;-63
2022/10/20 05:03:20;;;;;;;3.40;2.10;;;;;;;3.22;81.89;96377.99;1735845;81;21033;-62
2022/10/20 05:05:47;;;;;;;6.80;6.13;;;;;;;3.25;81.71;96371.14;1743679;82;21076;-63
2022/10/20 05:08:14;;;;;;;2.63;2.00;;;;;;;3.31;82.01;96370.81;1742993;82;21085;-65
2022/10/20 05:10:40;;;;;;;8.73;6.60;;;;;;;3.22;80.99;96382.78;1744972;81;21100;-64
2022/10/20 05:13:07;;;;;;;9.33;7.77;;;;;;;3.09;81.05;96380.75;1737425;81;21012;-63
2022/10/20 05:15:33;;;;;;;6.10;3.57;;;;;;;3.03;81.11;96381.92;1741174;81;21091;-62
2022/10/20 05:18:00;;;;;;;13.00;8.63;;;;;;;2.96;81.26;96382.63;1740804;82;21067;-64
2022/10/20 05:20:27;;;;;;;15.37;6.57;;;;;;;2.96;81.32;96387.41;1741416;82;21036;-64
2022/10/20 05:22:53;;;;;;;7.57;5.20;;;;;;;2.87;81.46;96391.09;1736497;81;21534;-66
2022/10/20 05:25:20;;;;;;;2.80;2.20;;;;;;;2.86;81.75;96397.59;1738078;82;21669;-64
2022/10/20 05:27:46;;;;;;;3.17;2.03;;;;;;;2.87;81.59;96396.30;1736055;81;21077;-64
2022/10/20 05:30:12;;;;;;;6.13;2.43;;;;;;;2.88;81.38;96403.30;1739001;82;21554;-63
2022/10/20 05:32:39;;;;;;;5.13;3.00;;;;;;;2.95;82.35;96406.94;1745029;82;21092;-65
2022/10/20 05:35:07;;;;;;;8.97;6.07;;;;;;;2.98;83.14;96405.70;1736909;82;21102;-62
2022/10/20 05:37:34;;;;;;;9.90;6.20;;;;;;;2.94;82.57;96401.25;1744477;82;21483;-63
2022/10/20 05:40:02;;;;;;;10.87;7.10;;;;;;;2.91;82.10;96411.61;1738288;81;21550;-62
2022/10/20 05:42:28;;;;;;;14.33;9.30;;;;;;;2.86;81.85;96411.50;1742937;81;21473;-63
2022/10/20 05:44:55;;;;;;;16.07;8.73;;;;;;;2.84;82.91;96415.78;1749191;81;21646;-61
2022/10/20 05:47:21;;;;;;;10.30;6.43;;;;;;;2.85;82.92;96414.05;1743725;82;21111;-66
2022/10/20 05:49:47;;;;;;;18.63;9.83;;;;;;;2.88;83.68;96424.14;1736373;82;21056;-66
2022/10/20 05:52:14;;;;;;;10.50;7.40;;;;;;;2.90;83.05;96425.47;1739101;82;21084;-63
2022/10/20 05:54:40;;;;;;;11.63;7.30;;;;;;;3.00;83.23;96430.09;1737785;81;21504;-63
2022/10/20 05:57:07;;;;;;;17.60;9.73;;;;;;;3.10;83.87;96424.64;1741488;82;21055;-62
2022/10/20 05:59:33;;;;;;;17.00;10.43;;;;;;;3.15;83.55;96421.33;1749237;81;21102;-63
2022/10/20 06:01:59;;;;;;;18.40;11.07;;;;;;;3.27;83.70;96423.74;1741298;82;21072;-64
2022/10/20 06:04:29;;;;;;;14.37;8.43;;;;;;;3.36;83.56;96432.66;1722800;82;21156;-64
2022/10/20 06:06:56;;;;;;;16.83;8.20;;;;;;;3.51;83.59;96431.25;1721306;82;21601;-63
2022/10/20 06:09:23;;;;;;;16.23;7.87;;;;;;;3.64;83.17;96435.89;1720883;82;21057;-62
2022/10/20 06:11:51;;;;;;;18.10;9.70;;;;;;;3.79;82.88;96445.78;1739826;81;21140;-64
2022/10/20 06:14:18;;;;;;;14.07;8.90;;;;;;;3.83;82.08;96449.80;1723843;82;21135;-65
2022/10/20 06:16:44;;;;;;;17.67;8.57;;;;;;;3.92;81.98;96457.36;1743153;81;21496;-65
2022/10/20 06:19:11;;;;;;;12.80;8.57;;;;;;;3.98;81.60;96462.30;1724073;82;21049;-66
2022/10/20 06:21:37;;;;;;;11.60;7.33;;;;;;;4.03;81.78;96472.41;1750494;80;21164;-63
2022/10/20 06:24:05;;;;;;;12.77;7.50;;;;;;;4.18;82.13;96467.89;1756078;81;21622;-64
2022/10/20 06:26:37;;;;;;;18.20;8.13;;;;;;;4.42;82.43;96465.33;1723194;82;21038;-64
2022/10/20 06:29:08;;;;;;;16.10;7.83;;;;;;;4.58;82.00;96472.59;1738126;81;21094;-78
2022/10/20 06:31:39;;;;;;;13.43;7.83;;;;;;;4.61;81.50;96471.77;1744603;82;21052;-73
2022/10/20 06:34:09;;;;;;;13.77;7.30;;;;;;;4.71;81.59;96475.91;1741712;82;21048;-77
2022/10/20 06:36:38;;;;;;;17.47;8.43;;;;;;;4.90;81.29;96476.23;1743292;81;21103;-72
2022/10/20 06:39:07;;;;;;;11.80;6.90;;;;;;;4.90;79.80;96471.00;1746569;82;21120;-72
2022/10/20 06:41:34;;;;;;;9.40;6.90;;;;;;;4.99;80.28;96474.66;1744817;81;21600;-78
2022/10/20 06:44:01;;;;;;;12.90;7.20;;;;;;;5.13;79.80;96467.03;1737970;82;21954;-81
2022/10/20 06:46:34;;;;;;;10.80;7.53;;;;;;;5.24;79.41;96466.31;1749363;81;21061;-79
2022/10/20 06:49:03;;;;;;;8.35;5.65;;;;;;;5.32;79.32;96470.84;1745966;82;21148;-74
2022/10/20 06:51:31;;;;;;;9.50;5.67;;;;;;;5.43;79.12;96474.92;1742492;82;21034;-73
2022/10/20 06:53:59;;;;;;;11.47;7.20;;;;;;;5.53;79.22;96480.75;1737792;82;21127;-72
2022/10/20 06:56:28;;;;;;;6.10;4.57;;;;;;;5.59;78.57;96482.17;1741762;82;21017;-72
2022/10/20 06:58:57;;;;;;;6.50;4.30;;;;;;;5.62;78.36;96484.83;1738254;81;21024;-79
2022/10/20 07:01:30;;;;;;;7.47;5.20;;;;;;;5.73;77.91;96485.41;1732067;81;21074;-72
2022/10/20 07:04:01;;;;;;;7.20;4.87;;;;;;;5.76;77.41;96483.70;1736933;81;21581;-71
2022/10/20 07:06:33;;;;;;;8.93;5.30;;;;;;;5.82;77.54;96486.83;1738952;82;21017;-72
2022/10/20 07:09:02;;;;;;;8.50;5.60;;;;;;;5.97;78.12;96488.81;1738911;81;21072;-72
2022/10/20 07:11:30;;;;;;;8.10;5.40;;;;;;;6.14;77.97;96491.23;1740219;82;21051;-75
2022/10/20 07:13:58;;;;;;;8.57;5.50;;;;;;;6.26;77.50;96485.28;1718575;82;21024;-75
2022/10/20 07:16:29;;;;;;;9.27;6.00;;;;;;;6.37;77.84;96483.65;1728095;82;21603;-74
2022/10/20 07:18:57;;;;;;;8.57;5.23;;;;;;;6.52;77.60;96486.89;1713175;83;21537;-74
2022/10/20 07:21:26;;;;;;;10.90;3.67;;;;;;;6.63;77.26;96486.59;1720272;82;21084;-74
2022/10/20 07:23:56;;;;;;;4.07;2.03;;;;;;;6.78;76.90;96492.84;1737656;82;21472;-76
2022/10/20 07:26:28;;;;;;;3.47;1.60;;;;;;;6.92;75.63;96488.19;1690841;82;21495;-76
2022/10/20 07:28:58;;;;;;;5.93;2.63;;;;;;;7.09;70.31;96486.17;1728430;82;21037;-76
2022/10/20 07:31:30;;;;;;;6.67;2.80;;;;;;;7.20;72.15;96485.83;1712766;82;21052;-74
2022/10/20 07:34:01;;;;;;;5.33;2.23;;;;;;;7.34;72.03;96497.33;1732958;82;21054;-73
2022/10/20 07:36:31;;;;;;;4.87;2.60;;;;;;;7.47;70.80;96492.19;1703484;82;21571;-74
2022/10/20 07:39:00;;;;;;;4.20;1.50;;;;;;;7.58;70.50;96494.04;1734442;82;21018;-73
2022/10/20 07:41:27;;;;;;;4.00;1.30;;;;;;;7.64;67.84;96487.95;1702074;83;21615;-73
2022/10/20 07:43:56;;;;;;;2.70;1.07;;;;;;;7.76;68.11;96489.75;1734815;82;21100;-80
2022/10/20 07:46:24;;;;;;;4.00;1.70;;;;;;;7.83;66.45;96486.74;1723082;82;21069;-75
2022/10/20 07:48:52;;;;;;;3.30;1.40;;;;;;;7.87;65.11;96491.16;1729728;81;21494;-74
2022/10/20 07:51:30;;;;;;;1.80;1.20;;;;;;;7.92;65.21;96494.70;1734901;82;21073;-76
2022/10/20 07:54:05;;;;;;;2.97;1.53;;;;;;;7.96;64.60;96500.39;1732013;82;21035;-73
2022/10/20 07:56:39;;;;;;;4.33;1.90;;;;;;;8.04;64.78;96494.77;1734590;82;21611;-71
2022/10/20 07:59:07;;;;;;;3.73;1.47;;;;;;;8.12;64.17;96496.13;1732577;82;21061;-73
2022/10/20 08:01:35;;;;;;;1.50;1.20;;;;;;;8.21;64.31;96497.47;1731569;82;21069;-74
2022/10/20 08:04:01;;;;;;;1.30;1.10;;;;;;;8.26;61.86;96494.87;1726493;82;21046;-69
2022/10/20 08:06:28;;;;;;;1.23;0.83;;;;;;;8.24;61.38;96486.99;1725533;82;21109;-70
2022/10/20 08:08:55;;;;;;;1.60;1.03;;;;;;;8.22;61.06;96490.05;1725907;82;21158;-71
2022/10/20 08:11:22;;;;;;;1.60;1.10;;;;;;;8.30;61.08;96491.39;1725752;82;21112;-71
2022/10/20 08:13:49;;;;;;;2.23;1.23;;;;;;;8.35;60.09;96483.09;1734303;82;21029;-72
2022/10/20 08:16:17;;;;;;;4.63;1.70;;;;;;;8.37;59.81;96487.92;1727580;82;21151;-70
2022/10/20 08:18:44;;;;;;;2.60;1.50;;;;;;;8.44;60.77;96483.14;1736470;82;21555;-70
2022/10/20 08:21:18;;;;;;;3.23;1.13;;;;;;;8.51;60.15;96488.00;1730171;82;21073;-70
2022/10/20 08:23:47;;;;;;;2.43;1.37;;;;;;;8.56;60.47;96491.52;1728747;82;21108;-70
2022/10/20 08:26:19;;;;;;;1.50;1.27;;;;;;;8.64;59.96;96481.48;1706299;84;21856;-71
2022/10/20 08:28:47;;;;;;;1.80;1.20;;;;;;;8.76;58.93;96487.64;1702301;84;21077;-71
2022/10/20 08:31:14;;;;;;;2.13;1.30;;;;;;;8.77;57.77;96485.44;1696843;82;21042;-71
2022/10/20 08:33:40;;;;;;;1.57;1.33;;;;;;;8.81;58.49;96493.36;1727905;82;21045;-70
2022/10/20 08:36:13;;;;;;;2.13;1.40;;;;;;;8.91;58.72;96496.02;1728913;82;21029;-74
2022/10/20 08:38:41;;;;;;;1.75;0.95;;;;;;;9.04;58.02;96497.34;1733134;83;21045;-76
2022/10/20 08:41:18;;;;;;;1.53;0.97;;;;;;;9.19;59.40;96489.05;1733200;82;21133;-78
2022/10/20 08:43:49;;;;;;;1.97;0.90;;;;;;;9.37;57.92;96489.49;1718734;82;21634;-74
2022/10/20 08:46:19;;;;;;;1.60;1.10;;;;;;;9.51;57.67;96489.06;1732402;82;21062;-78
2022/10/20 08:48:48;;;;;;;2.83;1.40;;;;;;;9.65;57.41;96490.36;1728317;82;21512;-76
2022/10/20 08:51:19;;;;;;;2.07;1.60;;;;;;;9.74;56.84;96482.46;1733314;82;21075;-74
2022/10/20 08:53:48;;;;;;;1.20;1.00;;;;;;;9.77;56.43;96489.04;1735415;82;21060;-80
2022/10/20 08:56:15;;;;;;;2.45;1.10;;;;;;;9.82;55.92;96490.36;1721221;81;21089;-73
2022/10/20 08:58:45;;;;;;;1.37;0.63;;;;;;;9.82;56.06;96496.50;1733967;82;21639;-73
2022/10/20 09:01:23;;;;;;;1.25;0.80;;;;;;;9.96;54.71;96488.59;1733643;82;21243;-77
2022/10/20 09:04:03;;;;;;;2.40;1.10;;;;;;;10.05;54.24;96491.63;1730840;82;21037;-78
2022/10/20 09:06:31;;;;;;;1.25;1.10;;;;;;;10.04;53.75;96485.48;1726228;82;21592;-77
2022/10/20 09:08:58;;;;;;;5.47;1.67;;;;;;;10.08;52.78;96483.70;1727213;82;21085;-79
2022/10/20 09:11:30;;;;;;;2.55;1.20;;;;;;;10.12;52.07;96489.42;1700498;83;21092;-81
2022/10/20 09:13:57;;;;;;;1.33;1.00;;;;;;;10.10;51.92;96488.55;1723488;82;21015;-81
2022/10/20 09:16:37;;;;;;;1.62;0.93;;;;;;;10.08;51.00;96483.70;1736715;82;21097;-79
2022/10/20 09:19:08;;;;;;;2.02;1.20;;;;;;;10.12;52.02;96491.61;1733142;82;21101;-81
2022/10/20 09:21:37;;;;;;;4.53;1.52;;;;;;;10.16;51.58;96493.82;1739937;82;21038;-82
2022/10/20 09:24:06;;;;;;;1.35;1.12;;;;;;;10.24;52.72;96486.76;1738789;81;21033;-81
2022/10/20 09:26:43;;;;;;;2.40;1.15;;;;;;;10.27;52.73;96488.06;1714196;83;21603;-82
2022/10/20 09:29:16;;;;;;;10.93;1.40;;;;;;;10.30;53.27;96489.84;1705138;84;21038;-80
2022/10/20 09:31:46;;;;;;;;;;;;;;;10.35;52.23;96488.06;1739020;82;21666;-81
2022/10/20 09:34:28;;;;;;;3.17;1.22;;;;;;;10.50;52.40;96491.97;1733341;81;20288;-83
2022/10/20 09:37:10;;;;;;;1.40;1.07;;;;;;;10.57;52.01;96488.42;1705445;84;21073;-82
2022/10/20 09:39:48;;;;;;;1.55;1.20;;;;;;;10.53;51.26;96486.70;1711625;83;21054;-82
2022/10/20 09:42:26;;;;;;;2.42;1.22;;;;;;;10.50;51.49;96490.64;1741528;82;21099;-82
2022/10/20 09:45:01;;;;;;;1.37;1.20;;;;;;;10.62;51.97;96488.41;1735098;81;21089;-83
2022/10/20 09:47:28;;;;;;;8.58;4.83;;;;;;;10.70;51.92;96485.28;1701248;84;21034;-83
2022/10/20 09:50:02;;;;;;;4.08;2.22;;;;;;;10.87;52.93;96482.56;1703355;83;21078;-82
2022/10/20 09:52:36;;;;;;;2.80;1.80;;;;;;;11.02;52.01;96489.08;1703558;84;21022;-82
2022/10/20 09:55:13;;;;;;;1.82;1.40;;;;;;;11.20;52.52;96492.04;1706051;84;21117;-82
2022/10/20 09:57:44;;;;;;;2.40;1.60;;;;;;;11.20;51.38;96488.53;1690544;83;21023;-83
2022/10/20 10:00:24;;;;;;;3.67;1.30;;;;;;;11.17;50.95;96486.78;1702401;83;21146;-83
2022/10/20 10:03:08;;;;;;;1.95;1.27;;;;;;;11.21;49.96;96490.27;1701444;83;21068;-83
2022/10/20 10:05:35;;;;;;;1.20;1.10;;;;;;;11.25;48.84;96486.73;1736680;82;21144;-82
2022/10/20 10:08:02;;;;;;;1.60;0.93;;;;;;;11.33;49.12;96488.00;1728933;82;21085;-83
2022/10/20 10:10:31;;;;;;;4.95;1.17;;;;;;;11.48;48.62;96489.20;1736271;82;21395;-82
2022/10/20 10:12:59;;;;;;;1.47;1.20;;;;;;;11.66;48.11;96484.20;1736608;82;21088;-82
2022/10/20 10:15:33;;;;;;;1.92;1.12;;;;;;;11.98;47.76;96477.34;1735404;81;21029;-83
2022/10/20 10:18:12;;;;;;;2.08;1.12;;;;;;;12.50;47.61;96477.23;1740141;82;21216;-83
2022/10/20 10:20:40;;;;;;;1.45;1.05;;;;;;;12.97;47.02;96476.59;1736650;82;21081;-82
2022/10/20 10:23:18;;;;;;;2.37;1.30;;;;;;;13.40;44.64;96477.31;1740852;82;21002;-81
2022/10/20 10:25:46;;;;;;;5.08;1.40;;;;;;;13.79;44.34;96474.06;1739085;81;21022;-84
2022/10/20 10:28:37;;;;;;;3.25;1.80;;;;;;;14.21;44.90;96470.19;1736904;82;21531;-84
2022/10/20 10:31:22;;;;;;;2.20;1.40;;;;;;;14.38;43.68;96471.20;1741928;82;21078;-84
2022/10/20 10:34:12;;;;;;;2.22;1.40;;;;;;;14.73;43.04;96467.88;1741202;82;21045;-84
2022/10/20 10:36:39;;;;;;;4.08;1.25;;;;;;;15.01;42.25;96459.30;1736465;81;21035;-82
2022/10/20 10:39:13;;;;;;;1.55;1.20;;;;;;;15.30;40.36;96458.66;1741679;82;21033;-84
2022/10/20 10:41:57;;;;;;;1.57;1.00;;;;;;;15.69;41.15;96462.59;1735320;82;21042;-84
2022/10/20 10:44:29;;;;;;;2.83;1.32;;;;;;;16.02;39.26;96459.55;1703252;82;21073;-78
2022/10/20 10:47:10;;;;;;;2.13;1.47;;;;;;;16.35;37.57;96452.44;1699349;84;21046;-83
2022/10/20 10:49:45;;;;;;;3.05;1.20;;;;;;;16.60;38.81;96453.95;1734298;83;21150;-84
2022/10/20 10:52:47;;;;;;;2.05;1.57;;;;;;;16.91;38.08;96438.89;1737402;82;21104;-84
2022/10/20 10:55:43;;;;;;;3.67;1.30;;;;;;;17.27;37.18;96441.77;1730481;82;21085;-84
2022/10/20 10:58:30;;;;;;;2.60;1.40;;;;;;;17.18;34.76;96435.84;1730356;82;21018;-84
2022/10/20 11:01:29;;;;;;;2.27;1.55;;;;;;;17.54;36.14;96439.16;1727054;82;21046;-85
2022/10/20 11:04:07;;;;;;;1.30;1.20;;;;;;;17.74;34.61;96436.70;1719740;81;21045;-85
2022/10/20 11:06:59;;;;;;;2.20;1.20;;;;;;;17.86;34.75;96425.22;1735558;82;21069;-84
2022/10/20 11:09:52;;;;;;;3.22;1.70;;;;;;;17.99;33.83;96431.88;1742149;82;21073;-85
2022/10/20 11:12:34;;;;;;;;;;;;;;;18.25;34.51;96431.45;1743916;82;21051;-84
2022/10/20 11:15:32;;;;;;;3.02;1.40;;;;;;;18.36;33.86;96426.58;1738287;82;20108;-85
2022/10/20 11:18:29;;;;;;;1.72;1.00;;;;;;;18.45;33.75;96424.92;1711708;82;21078;-85
2022/10/20 11:21:13;;;;;;;3.27;1.80;;;;;;;18.66;32.91;96425.06;1699110;82;21042;-83
2022/10/20 11:24:00;;;;;;;1.80;1.42;;;;;;;18.81;32.46;96425.84;1720920;82;21101;-84
2022/10/20 11:26:40;;;;;;;1.98;1.30;;;;;;;18.82;32.52;96423.57;1705467;84;21089;-83
2022/10/20 11:29:32;;;;;;;3.35;2.08;;;;;;;18.99;32.01;96415.78;1704430;83;21081;-85
2022/10/20 11:32:15;;;;;;;2.02;1.20;;;;;;;19.13;31.82;96417.93;1705783;84;21160;-85
2022/10/20 11:35:33;;;;;;;2.20;1.30;;;;;;;19.05;31.50;96416.47;1702788;83;21046;-84
2022/10/20 11:38:20;;;;;;;2.35;1.30;;;;;;;19.29;31.36;96414.64;1704921;83;21570;-84
2022/10/20 11:41:04;;;;;;;2.67;1.50;;;;;;;19.51;29.97;96416.00;1698278;84;21084;-77
2022/10/20 11:43:58;;;;;;;2.42;1.22;;;;;;;19.58;30.37;96410.77;1737027;81;21098;-70
2022/10/20 11:47:00;;;;;;;2.05;1.10;;;;;;;19.55;30.16;96407.75;1737765;81;21098;-74
2022/10/20 11:49:29;;;;;;;2.00;1.10;;;;;;;19.94;29.97;96406.20;1733597;82;21041;-73
2022/10/20 11:52:22;;;;;;;2.62;1.00;;;;;;;20.16;29.19;96408.80;1706588;82;21050;-74
2022/10/20 11:55:04;;;;;;;;;;;;;;;20.34;27.75;96409.84;1704690;84;21520;-73
2022/10/20 11:58:04;;;;;;;3.00;1.30;;;;;;;20.31;27.54;96406.34;1734474;82;20377;-74
2022/10/20 12:01:04;;;;;;;1.40;1.05;;;;;;;20.55;27.70;96397.31;1732982;82;21046;-77
2022/10/20 12:04:03;;;;;;;2.05;0.90;;;;;;;20.78;27.01;96393.57;1704079;84;21559;-73